Hanaford, Illinois
Current Conditions -  °F | °C
As of 7:51 AM on Tuesday 27 Jan 2015 (Local Time) from KMWA Reporting Station
Clear Clear  
Wind Chill: 31°   Ceiling: Unl
Heat Index: 36°   Visibility: 10mi
Dew Point: 32°   Wind: 6mph
Humidity: 87%   Direction: 320°NW
Pressure: 30.08"   Gusts: NA
Location:  37.9555°N, 88.8403°W
Report Text: KMWA 271351Z 32005KT 10SM SKC 02/00 A3008
Loading
Personal Weather Stations






























Interactive Weather Map New forecast layout! Learn more

10-Day Weather Forecast

Advertisements
Track Severe Weather on mobile